Terminal Aerodrome Forecast
Issued by NWS Corpus Christi, TX

Home | Current Version | Previous Version | Text Only | Print | Product List | Glossary On
Versions: 1 2 3 4 5 6 7 8 9 10 11 12 13 14
000
FTUS44 KCRP 202300
TAFCRP
TAF
KCRP 202324Z 2100/2124 14016G22KT P6SM FEW030 SCT040
     FM210300 14011KT P6SM SCT020 BKN100
     FM210800 14005KT P6SM BKN015
     FM211400 17015KT P6SM SCT025 BKN200
     FM211800 14015G20KT P6SM FEW030 SCT150=

USA.gov is the U.S. government's official web portal to all federal, state and local government web resources and services.